createdAt,value
2023-03-06T00:01:06.954Z,4.07
2023-03-06T00:03:33.833Z,3.75
2023-03-06T00:06:01.099Z,3.97
2023-03-06T00:08:28.741Z,3.97
2023-03-06T00:10:55.966Z,3.95
2023-03-06T00:13:22.827Z,4.70
2023-03-06T00:15:51.298Z,4.43
2023-03-06T00:18:18.178Z,4.00
2023-03-06T00:20:45.045Z,3.92
2023-03-06T00:23:11.833Z,4.43
2023-03-06T00:25:42.505Z,4.13
2023-03-06T00:28:09.192Z,3.55
2023-03-06T00:30:36.414Z,3.93
2023-03-06T00:33:04.538Z,3.47
2023-03-06T00:35:31.285Z,3.40
2023-03-06T00:37:57.998Z,2.95
2023-03-06T00:40:24.707Z,2.90
2023-03-06T00:42:51.507Z,3.47
2023-03-06T00:45:18.367Z,3.05
2023-03-06T00:47:45.086Z,3.53
2023-03-06T00:50:13.243Z,3.88
2023-03-06T00:52:39.937Z,4.10
2023-03-06T00:55:07.585Z,3.50
2023-03-06T00:57:34.229Z,3.50
2023-03-06T01:00:01.028Z,3.53
2023-03-06T01:02:27.829Z,3.70
2023-03-06T01:04:54.679Z,3.00
2023-03-06T01:07:22.873Z,3.43
2023-03-06T01:09:49.861Z,2.90
2023-03-06T01:12:16.533Z,3.00
2023-03-06T01:14:43.267Z,2.60
2023-03-06T01:17:10.017Z,3.50
2023-03-06T01:19:36.758Z,3.50
2023-03-06T01:22:03.590Z,2.92
2023-03-06T01:24:31.705Z,2.85
2023-03-06T01:26:58.433Z,3.42
2023-03-06T01:29:25.116Z,3.15
2023-03-06T01:31:51.887Z,2.80
2023-03-06T01:34:18.778Z,3.22
2023-03-06T01:36:45.497Z,2.85
2023-03-06T01:39:12.244Z,3.30
2023-03-06T01:41:40.368Z,3.60
2023-03-06T01:44:07.755Z,3.63
2023-03-06T01:46:36.859Z,3.08
2023-03-06T01:49:07.546Z,3.28
2023-03-06T01:51:38.332Z,3.30
2023-03-06T01:54:10.879Z,3.75
2023-03-06T01:56:38.807Z,3.43
2023-03-06T01:59:07.616Z,3.70
2023-03-06T02:01:35.456Z,3.72
2023-03-06T02:04:02.212Z,3.53
2023-03-06T02:06:28.947Z,3.97
2023-03-06T02:08:56.323Z,4.50
2023-03-06T02:11:25.252Z,3.30
2023-03-06T02:13:53.703Z,3.80
2023-03-06T02:16:25.490Z,3.83
2023-03-06T02:18:53.326Z,4.05
2023-03-06T02:21:23.197Z,4.17
2023-03-06T02:24:20.457Z,3.90
2023-03-06T02:26:49.359Z,4.32
2023-03-06T02:29:22.293Z,3.72
2023-03-06T02:31:49.194Z,4.57
2023-03-06T02:34:52.624Z,3.47
2023-03-06T02:37:20.055Z,4.93
2023-03-06T02:39:49.933Z,3.80
2023-03-06T02:42:23.145Z,3.70
2023-03-06T02:44:51.147Z,4.22
2023-03-06T02:47:17.887Z,4.27
2023-03-06T02:49:44.894Z,3.95
2023-03-06T02:52:11.678Z,5.05
2023-03-06T02:54:38.399Z,4.18
2023-03-06T02:57:05.196Z,4.85
2023-03-06T02:59:33.238Z,4.53
2023-03-06T03:01:59.965Z,4.25
2023-03-06T03:04:26.701Z,4.90
2023-03-06T03:06:53.385Z,4.07
2023-03-06T03:09:20.097Z,4.38
2023-03-06T03:11:46.786Z,4.80
2023-03-06T03:14:13.441Z,4.53
2023-03-06T03:16:41.511Z,5.28
2023-03-06T03:19:08.227Z,4.90
2023-03-06T03:21:34.907Z,5.18
2023-03-06T03:24:01.603Z,4.93
2023-03-06T03:26:28.287Z,4.40
2023-03-06T03:28:54.967Z,5.03
2023-03-06T03:31:21.764Z,5.38
2023-03-06T03:33:49.869Z,4.15
2023-03-06T03:36:16.590Z,4.70
2023-03-06T03:38:43.322Z,4.65
2023-03-06T03:41:09.973Z,4.32
2023-03-06T03:43:36.636Z,4.72
2023-03-06T03:46:03.394Z,4.57
2023-03-06T03:48:30.100Z,5.20
2023-03-06T03:51:04.695Z,5.18
2023-03-06T03:53:31.385Z,4.75
2023-03-06T03:55:58.065Z,4.53
2023-03-06T03:58:24.760Z,5.82
2023-03-06T04:00:51.465Z,5.10
2023-03-06T04:03:18.605Z,5.15
2023-03-06T04:05:45.349Z,4.97
2023-03-06T04:08:13.422Z,4.68
2023-03-06T04:10:40.160Z,5.45
2023-03-06T04:13:09.575Z,5.73
2023-03-06T04:15:36.739Z,5.57
2023-03-06T04:18:03.563Z,5.63
2023-03-06T04:20:30.286Z,5.25
2023-03-06T04:22:57.027Z,5.80
2023-03-06T04:25:25.095Z,5.97
2023-03-06T04:27:51.837Z,5.57
2023-03-06T04:30:18.690Z,6.15
2023-03-06T04:32:45.437Z,5.40
2023-03-06T04:35:12.219Z,5.35
2023-03-06T04:37:38.898Z,5.80
2023-03-06T04:40:06.548Z,5.60
2023-03-06T04:42:34.786Z,5.75
2023-03-06T04:45:01.746Z,6.30
2023-03-06T04:47:28.465Z,6.40
2023-03-06T04:49:55.123Z,6.50
2023-03-06T04:52:21.756Z,6.05
2023-03-06T04:54:48.405Z,6.47
2023-03-06T04:57:15.122Z,5.45
2023-03-06T04:59:43.253Z,5.97
2023-03-06T05:02:09.953Z,7.20
2023-03-06T05:04:36.667Z,6.28
2023-03-06T05:07:03.349Z,6.13
2023-03-06T05:09:30.036Z,5.72
2023-03-06T05:11:56.777Z,6.30
2023-03-06T05:14:23.516Z,6.67
2023-03-06T05:16:51.572Z,6.03
2023-03-06T05:19:18.291Z,6.30
2023-03-06T05:21:44.963Z,6.30
2023-03-06T05:24:11.702Z,6.03
2023-03-06T05:26:38.477Z,6.27
2023-03-06T05:29:05.185Z,6.88
2023-03-06T05:31:32.025Z,7.18
2023-03-06T05:34:00.165Z,7.30
2023-03-06T05:36:26.813Z,7.13
2023-03-06T05:38:53.583Z,6.80
2023-03-06T05:41:20.309Z,7.28
2023-03-06T05:43:47.558Z,7.88
2023-03-06T05:46:14.373Z,7.65
2023-03-06T05:48:41.173Z,8.38
2023-03-06T05:51:09.978Z,7.30
2023-03-06T05:53:36.786Z,7.30
2023-03-06T05:56:05.799Z,7.72
2023-03-06T05:58:33.816Z,7.10
2023-03-06T06:01:00.653Z,7.43
2023-03-06T06:03:27.388Z,7.33
2023-03-06T06:05:54.159Z,8.05
2023-03-06T06:08:22.194Z,7.60
2023-03-06T06:10:50.447Z,7.38
2023-03-06T06:13:18.881Z,7.55
2023-03-06T06:15:45.605Z,7.43
2023-03-06T06:18:12.278Z,8.32
2023-03-06T06:20:39.095Z,8.93
2023-03-06T06:23:05.786Z,7.97
2023-03-06T06:25:34.037Z,8.98
2023-03-06T06:28:00.661Z,8.87
2023-03-06T06:30:27.366Z,8.88
2023-03-06T06:32:54.043Z,8.80
2023-03-06T06:35:20.895Z,8.75
2023-03-06T06:37:48.013Z,8.93
2023-03-06T06:40:15.260Z,7.67
2023-03-06T06:42:43.959Z,7.93
2023-03-06T06:45:11.500Z,7.82
2023-03-06T06:47:39.237Z,8.52
2023-03-06T06:50:07.374Z,8.25
2023-03-06T06:52:34.600Z,8.67
2023-03-06T06:55:01.265Z,9.65
2023-03-06T06:57:27.987Z,9.98
2023-03-06T06:59:56.091Z,9.55
2023-03-06T07:02:22.877Z,8.55
2023-03-06T07:05:03.197Z,9.50
2023-03-06T07:07:31.068Z,8.48
2023-03-06T07:09:57.754Z,9.25
2023-03-06T07:12:24.427Z,7.95
2023-03-06T07:14:51.222Z,9.30
2023-03-06T07:17:19.351Z,8.50
2023-03-06T07:19:46.086Z,8.85
2023-03-06T07:22:13.110Z,9.00
2023-03-06T07:24:39.835Z,8.95
2023-03-06T07:27:06.560Z,8.80
2023-03-06T07:29:33.328Z,8.70
2023-03-06T07:32:00.382Z,10.15
2023-03-06T07:34:28.695Z,9.52
2023-03-06T07:36:55.713Z,8.52
2023-03-06T07:39:22.498Z,9.18
2023-03-06T07:41:49.193Z,10.43
2023-03-06T07:44:15.886Z,9.30
2023-03-06T07:46:42.668Z,10.23
2023-03-06T07:49:09.528Z,9.85
2023-03-06T07:51:37.588Z,8.85
2023-03-06T07:54:04.285Z,8.87
2023-03-06T07:56:30.993Z,9.55
2023-03-06T07:58:57.665Z,10.45
2023-03-06T08:01:24.455Z,9.40
2023-03-06T08:03:52.112Z,10.18
2023-03-06T08:06:21.783Z,9.38
2023-03-06T08:08:51.663Z,10.02
2023-03-06T08:11:20.072Z,9.15
2023-03-06T08:13:47.009Z,9.27
2023-03-06T08:16:13.768Z,9.07
2023-03-06T08:18:40.574Z,10.27
2023-03-06T08:21:09.394Z,9.10
2023-03-06T08:23:36.311Z,9.50
2023-03-06T08:26:06.297Z,9.00
2023-03-06T08:28:33.595Z,9.68
2023-03-06T08:31:08.626Z,9.05
2023-03-06T08:33:35.582Z,8.65
2023-03-06T08:36:02.537Z,9.32
2023-03-06T08:38:29.445Z,8.93
2023-03-06T08:40:56.345Z,9.07
2023-03-06T08:43:24.445Z,8.40
2023-03-06T08:45:52.331Z,8.85
2023-03-06T08:48:19.096Z,7.93
2023-03-06T08:50:45.834Z,8.18
2023-03-06T08:53:12.532Z,8.18
2023-03-06T08:55:39.488Z,8.55
2023-03-06T08:58:06.495Z,8.98
2023-03-06T09:00:35.429Z,8.32
2023-03-06T09:03:02.192Z,8.55
2023-03-06T09:05:29.002Z,8.80
2023-03-06T09:07:55.694Z,8.75
2023-03-06T09:10:24.512Z,8.43
2023-03-06T09:12:54.449Z,7.32
2023-03-06T09:15:22.425Z,8.32
2023-03-06T09:17:50.763Z,9.93
2023-03-06T09:20:18.770Z,8.60
2023-03-06T09:22:45.885Z,8.68
2023-03-06T09:25:13.867Z,12.45
2023-03-06T09:27:41.586Z,10.52
2023-03-06T09:30:09.696Z,12.43
2023-03-06T09:32:36.440Z,10.95
2023-03-06T09:35:05.199Z,10.80
2023-03-06T09:37:32.062Z,11.88
2023-03-06T09:39:58.786Z,10.48
2023-03-06T09:42:26.987Z,9.65
2023-03-06T09:44:55.701Z,9.57
2023-03-06T09:47:38.128Z,9.40
2023-03-06T09:50:21.838Z,9.73
2023-03-06T09:53:02.043Z,9.80
2023-03-06T09:55:32.208Z,9.82
2023-03-06T09:58:02.890Z,10.50
2023-03-06T10:00:35.616Z,10.68
2023-03-06T10:03:16.006Z,9.90
2023-03-06T10:05:47.820Z,10.48
2023-03-06T10:08:21.778Z,10.43
2023-03-06T10:10:53.881Z,11.52
2023-03-06T10:13:26.806Z,11.10
2023-03-06T10:15:59.422Z,11.75
2023-03-06T10:18:26.169Z,10.60
2023-03-06T10:21:07.384Z,10.15
2023-03-06T10:23:49.560Z,10.23
2023-03-06T10:26:19.848Z,11.35
2023-03-06T10:28:52.583Z,10.20
2023-03-06T10:31:23.629Z,9.20
2023-03-06T10:33:54.996Z,9.75
2023-03-06T10:36:25.057Z,10.53
2023-03-06T10:38:51.749Z,11.00
2023-03-06T10:41:27.331Z,10.93
2023-03-06T10:44:22.530Z,10.77
2023-03-06T10:46:51.037Z,10.88
2023-03-06T10:49:28.126Z,11.13
2023-03-06T10:52:02.641Z,10.32
2023-03-06T10:54:34.328Z,10.30
2023-03-06T10:57:20.300Z,9.95
2023-03-06T10:59:52.620Z,9.02
2023-03-06T11:02:27.101Z,9.23
2023-03-06T11:04:55.114Z,9.18
2023-03-06T11:07:25.999Z,9.35
2023-03-06T11:10:03.707Z,9.35
2023-03-06T11:12:32.610Z,7.95
2023-03-06T11:15:18.558Z,8.43
2023-03-06T11:17:52.265Z,9.70
2023-03-06T11:20:20.434Z,9.93
2023-03-06T11:22:51.127Z,9.15
2023-03-06T11:25:19.453Z,8.45
2023-03-06T11:27:53.634Z,8.18
2023-03-06T11:30:23.994Z,8.77
2023-03-06T11:32:55.094Z,8.80
2023-03-06T11:35:24.714Z,8.93
2023-03-06T11:37:56.256Z,10.10
2023-03-06T11:40:30.109Z,8.18
2023-03-06T11:43:02.715Z,8.13
2023-03-06T11:45:34.415Z,7.60
2023-03-06T11:48:14.284Z,7.85
2023-03-06T11:50:42.980Z,7.53
2023-03-06T11:53:13.435Z,7.15
2023-03-06T11:55:49.906Z,7.35
2023-03-06T11:58:40.370Z,8.43
2023-03-06T12:01:10.634Z,6.32
2023-03-06T12:04:03.013Z,6.70
2023-03-06T12:06:41.523Z,7.32
2023-03-06T12:09:25.753Z,6.43
2023-03-06T12:12:05.107Z,7.07
2023-03-06T12:14:52.306Z,6.55
2023-03-06T12:17:25.656Z,6.50
2023-03-06T12:20:11.572Z,7.47
2023-03-06T12:22:57.504Z,7.22
2023-03-06T12:25:35.243Z,7.15
2023-03-06T12:28:24.461Z,7.03
2023-03-06T12:31:28.567Z,6.60
2023-03-06T12:34:11.365Z,7.78
2023-03-06T12:36:51.188Z,6.32
2023-03-06T12:39:24.320Z,6.90
2023-03-06T12:42:02.478Z,7.07
2023-03-06T12:44:56.203Z,6.78
2023-03-06T12:47:25.714Z,6.35
2023-03-06T12:49:56.846Z,6.65
2023-03-06T12:52:30.234Z,6.95
2023-03-06T12:54:59.580Z,6.07
2023-03-06T12:57:30.004Z,5.60
2023-03-06T12:59:56.805Z,5.68
2023-03-06T13:02:58.721Z,5.40
2023-03-06T13:06:04.689Z,5.68
2023-03-06T13:08:58.669Z,4.22
2023-03-06T13:12:08.142Z,5.38
2023-03-06T13:17:34.126Z,8.02
2023-03-06T13:20:28.111Z,6.07
2023-03-06T13:22:55.008Z,9.85
2023-03-06T13:25:35.777Z,6.85
2023-03-06T13:28:03.899Z,5.38
2023-03-06T13:30:44.165Z,5.50
2023-03-06T13:33:53.022Z,5.28
2023-03-06T13:36:24.914Z,5.65
2023-03-06T13:39:09.765Z,5.53
2023-03-06T13:41:41.197Z,5.00
2023-03-06T13:44:47.283Z,5.75
2023-03-06T13:48:09.638Z,6.55
2023-03-06T13:50:41.045Z,5.90
2023-03-06T13:53:41.060Z,6.60
2023-03-06T13:56:34.204Z,7.15
2023-03-06T13:59:18.172Z,5.32
2023-03-06T14:01:54.383Z,4.85
2023-03-06T14:04:53.395Z,5.10
2023-03-06T14:07:26.087Z,5.57
2023-03-06T14:10:17.007Z,5.47
2023-03-06T14:13:00.441Z,6.07
2023-03-06T14:15:32.004Z,8.77
2023-03-06T14:18:01.360Z,7.70
2023-03-06T14:20:35.256Z,4.82
2023-03-06T14:23:23.362Z,5.13
2023-03-06T14:25:57.654Z,5.78
2023-03-06T14:28:25.792Z,5.00
2023-03-06T14:30:54.684Z,5.65
2023-03-06T14:33:29.735Z,6.57
2023-03-06T14:36:00.588Z,5.20
2023-03-06T14:38:30.362Z,4.15
2023-03-06T14:40:58.476Z,4.93
2023-03-06T14:43:26.900Z,4.80
2023-03-06T14:45:56.769Z,4.57
2023-03-06T14:48:26.017Z,4.40
2023-03-06T14:50:54.545Z,4.18
2023-03-06T14:53:24.717Z,3.72
2023-03-06T14:55:53.598Z,3.65
2023-03-06T14:58:29.813Z,4.20
2023-03-06T15:00:59.188Z,3.90
2023-03-06T15:03:33.763Z,3.85
2023-03-06T15:06:01.121Z,4.95
2023-03-06T15:08:32.026Z,4.75
2023-03-06T15:11:00.375Z,5.05
2023-03-06T15:13:29.991Z,5.30
2023-03-06T15:15:59.308Z,5.82
2023-03-06T15:18:27.640Z,4.82
2023-03-06T15:21:05.931Z,5.38
2023-03-06T15:23:37.954Z,8.77
2023-03-06T15:26:22.408Z,7.00
2023-03-06T15:29:08.961Z,6.25
2023-03-06T15:31:37.389Z,5.10
2023-03-06T15:34:14.677Z,5.38
2023-03-06T15:36:43.366Z,5.97
2023-03-06T15:39:28.059Z,5.45
2023-03-06T15:41:56.870Z,5.65
2023-03-06T15:44:25.610Z,6.57
2023-03-06T15:46:59.215Z,6.45
2023-03-06T15:49:33.328Z,6.85
2023-03-06T15:52:00.135Z,7.68
2023-03-06T15:54:26.804Z,7.65
2023-03-06T15:56:53.499Z,8.20
2023-03-06T15:59:24.075Z,6.97
2023-03-06T16:01:52.914Z,8.50
2023-03-06T16:04:20.180Z,7.80
2023-03-06T16:06:47.005Z,8.95
2023-03-06T16:09:14.523Z,7.53
2023-03-06T16:11:44.208Z,7.05
2023-03-06T16:14:18.966Z,6.72
2023-03-06T16:16:45.971Z,7.72
2023-03-06T16:19:25.237Z,7.15
2023-03-06T16:21:52.876Z,9.70
2023-03-06T16:24:19.612Z,10.35
2023-03-06T16:26:48.949Z,8.38
2023-03-06T16:29:16.852Z,8.40
2023-03-06T16:31:43.689Z,7.40
2023-03-06T16:34:10.648Z,7.88
2023-03-06T16:36:39.072Z,7.28
2023-03-06T16:39:06.403Z,7.65
2023-03-06T16:41:33.133Z,7.30
2023-03-06T16:43:59.885Z,7.07
2023-03-06T16:46:26.769Z,7.07
2023-03-06T16:48:53.460Z,7.70
2023-03-06T16:51:22.301Z,8.63
2023-03-06T16:53:50.644Z,8.88
2023-03-06T16:56:19.442Z,11.30
2023-03-06T16:58:47.380Z,13.98
2023-03-06T17:01:15.906Z,14.73
2023-03-06T17:03:42.705Z,8.73
2023-03-06T17:06:13.686Z,8.70
2023-03-06T17:08:40.422Z,9.38
2023-03-06T17:11:08.863Z,8.63
2023-03-06T17:13:35.583Z,9.75
2023-03-06T17:16:02.605Z,7.85
2023-03-06T17:18:30.496Z,9.18
2023-03-06T17:20:57.749Z,10.33
2023-03-06T17:23:26.439Z,9.90
2023-03-06T17:26:02.139Z,10.88
2023-03-06T17:28:30.267Z,12.82
2023-03-06T17:30:57.003Z,10.20
2023-03-06T17:33:23.800Z,11.23
2023-03-06T17:35:50.561Z,11.85
2023-03-06T17:38:17.355Z,11.13
2023-03-06T17:40:44.053Z,11.20
2023-03-06T17:43:10.818Z,11.55
2023-03-06T17:45:38.886Z,10.60
2023-03-06T17:48:05.678Z,12.15
2023-03-06T17:50:32.424Z,12.63
2023-03-06T17:52:59.112Z,12.18
2023-03-06T17:55:25.832Z,10.95
2023-03-06T17:57:52.587Z,14.07
2023-03-06T18:00:20.038Z,14.20
2023-03-06T18:02:48.199Z,12.75
2023-03-06T18:05:14.991Z,14.77
2023-03-06T18:07:41.668Z,13.23
2023-03-06T18:10:09.256Z,11.53
2023-03-06T18:12:35.960Z,11.55
2023-03-06T18:15:02.761Z,12.40
2023-03-06T18:17:29.452Z,12.48
2023-03-06T18:19:57.872Z,13.13
2023-03-06T18:22:24.573Z,12.88
2023-03-06T18:24:51.241Z,13.20
2023-03-06T18:27:17.975Z,12.80
2023-03-06T18:29:44.774Z,11.90
2023-03-06T18:32:11.455Z,11.68
2023-03-06T18:34:38.206Z,12.03
2023-03-06T18:37:06.341Z,13.43
2023-03-06T18:39:33.037Z,12.13
2023-03-06T18:41:59.842Z,12.13
2023-03-06T18:44:26.555Z,12.93
2023-03-06T18:46:53.237Z,11.90
2023-03-06T18:49:19.921Z,12.10
2023-03-06T18:51:46.565Z,11.68
2023-03-06T18:54:14.682Z,12.68
2023-03-06T18:56:41.582Z,12.23
2023-03-06T18:59:08.294Z,13.60
2023-03-06T19:01:35.137Z,11.88
2023-03-06T19:04:02.761Z,12.30
2023-03-06T19:06:29.885Z,13.10
2023-03-06T19:08:56.738Z,13.27
2023-03-06T19:11:25.651Z,12.20
2023-03-06T19:13:52.832Z,12.48
2023-03-06T19:16:22.800Z,12.50
2023-03-06T19:18:49.625Z,13.48
2023-03-06T19:21:18.397Z,11.60
2023-03-06T19:23:45.523Z,12.83
2023-03-06T19:26:12.653Z,12.05
2023-03-06T19:28:42.742Z,12.18
2023-03-06T19:31:11.173Z,11.98
2023-03-06T19:33:38.141Z,12.30
2023-03-06T19:36:05.835Z,12.70
2023-03-06T19:38:32.730Z,12.85
2023-03-06T19:40:59.812Z,11.95
2023-03-06T19:43:26.636Z,12.35
2023-03-06T19:45:55.089Z,11.52
2023-03-06T19:48:22.856Z,11.10
2023-03-06T19:50:49.762Z,11.07
2023-03-06T19:53:16.522Z,13.02
2023-03-06T19:55:43.545Z,11.88
2023-03-06T19:58:10.349Z,12.75
2023-03-06T20:00:37.348Z,11.57
2023-03-06T20:03:05.482Z,10.93
2023-03-06T20:05:32.203Z,10.98
2023-03-06T20:07:58.933Z,11.07
2023-03-06T20:10:25.680Z,12.30
2023-03-06T20:12:52.410Z,12.10
2023-03-06T20:15:25.249Z,11.93
2023-03-06T20:17:51.971Z,11.65
2023-03-06T20:20:20.107Z,10.95
2023-03-06T20:22:46.803Z,12.10
2023-03-06T20:25:13.505Z,11.10
2023-03-06T20:27:40.209Z,11.55
2023-03-06T20:30:08.462Z,11.50
2023-03-06T20:32:35.855Z,12.02
2023-03-06T20:35:02.811Z,12.13
2023-03-06T20:37:30.850Z,11.23
2023-03-06T20:39:57.682Z,10.93
2023-03-06T20:42:24.388Z,9.82
2023-03-06T20:44:51.065Z,9.50
2023-03-06T20:47:17.760Z,9.80
2023-03-06T20:49:44.451Z,9.20
2023-03-06T20:52:11.129Z,9.48
2023-03-06T20:54:39.527Z,9.38
2023-03-06T20:57:06.436Z,8.27
2023-03-06T20:59:33.174Z,9.70
2023-03-06T21:01:59.903Z,9.63
2023-03-06T21:04:26.734Z,9.88
2023-03-06T21:06:54.036Z,9.63
2023-03-06T21:09:20.956Z,12.13
2023-03-06T21:11:49.067Z,10.60
2023-03-06T21:14:15.784Z,11.13
2023-03-06T21:16:43.012Z,11.68
2023-03-06T21:19:10.140Z,10.52
2023-03-06T21:21:36.820Z,9.52
2023-03-06T21:24:03.862Z,9.75
2023-03-06T21:26:31.759Z,12.13
2023-03-06T21:29:00.645Z,12.20
2023-03-06T21:31:28.043Z,10.02
2023-03-06T21:33:55.414Z,9.38
2023-03-06T21:36:22.409Z,10.10
2023-03-06T21:38:50.284Z,9.70
2023-03-06T21:41:18.879Z,10.38
2023-03-06T21:43:45.578Z,10.13
2023-03-06T21:46:13.837Z,10.07
2023-03-06T21:48:40.631Z,9.68
2023-03-06T21:51:08.952Z,10.07
2023-03-06T21:53:36.374Z,9.35
2023-03-06T21:56:03.436Z,9.05
2023-03-06T21:58:31.563Z,9.48
2023-03-06T22:00:58.550Z,9.82
2023-03-06T22:03:27.087Z,9.77
2023-03-06T22:05:53.889Z,9.57
2023-03-06T22:08:20.799Z,9.48
2023-03-06T22:10:48.531Z,9.30
2023-03-06T22:13:15.333Z,9.13
2023-03-06T22:15:49.759Z,10.23
2023-03-06T22:18:16.503Z,8.52
2023-03-06T22:20:44.774Z,10.10
2023-03-06T22:23:11.733Z,9.15
2023-03-06T22:25:38.403Z,9.82
2023-03-06T22:28:05.101Z,10.03
2023-03-06T22:30:31.859Z,9.52
2023-03-06T22:32:58.517Z,8.93
2023-03-06T22:35:25.311Z,10.00
2023-03-06T22:37:53.509Z,8.73
2023-03-06T22:40:20.218Z,10.03
2023-03-06T22:42:46.898Z,8.73
2023-03-06T22:45:13.577Z,9.48
2023-03-06T22:47:40.487Z,8.32
2023-03-06T22:50:08.088Z,8.88
2023-03-06T22:52:34.816Z,9.30
2023-03-06T22:55:02.911Z,8.80
2023-03-06T22:57:29.624Z,8.10
2023-03-06T22:59:56.314Z,8.60
2023-03-06T23:02:23.069Z,9.15
2023-03-06T23:04:49.993Z,9.00
2023-03-06T23:07:16.697Z,8.15
2023-03-06T23:09:43.423Z,7.95
2023-03-06T23:12:11.579Z,8.70
2023-03-06T23:14:38.489Z,8.43
2023-03-06T23:17:05.326Z,9.07
2023-03-06T23:19:32.002Z,7.30
2023-03-06T23:21:58.730Z,8.70
2023-03-06T23:24:25.456Z,8.07
2023-03-06T23:26:52.097Z,8.27
2023-03-06T23:29:20.154Z,7.83
2023-03-06T23:31:46.905Z,8.32
2023-03-06T23:34:13.641Z,8.48
2023-03-06T23:36:40.335Z,7.85
2023-03-06T23:39:07.034Z,7.13
2023-03-06T23:41:33.739Z,7.90
2023-03-06T23:44:00.474Z,7.80
2023-03-06T23:46:28.570Z,7.47
2023-03-06T23:48:55.351Z,7.63
2023-03-06T23:51:22.562Z,7.50
2023-03-06T23:53:54.683Z,7.70
2023-03-06T23:56:21.386Z,7.75
2023-03-06T23:58:48.056Z,7.65
